createdAt,value
2018-01-23T04:31:37.759Z,16.58
2018-01-23T04:34:06.199Z,15.88
2018-01-23T04:36:33.876Z,15.75
2018-01-23T04:39:01.587Z,15.35
2018-01-23T04:41:29.311Z,16.02
2018-01-23T04:43:57.058Z,15.60
2018-01-23T04:46:24.760Z,15.95
2018-01-23T04:48:52.486Z,15.90
2018-01-23T04:51:20.186Z,16.25
2018-01-23T04:53:47.887Z,15.10
2018-01-23T04:56:15.606Z,16.25
2018-01-23T04:58:43.306Z,15.88
2018-01-23T05:01:11.007Z,15.63
2018-01-23T05:03:39.498Z,13.23
2018-01-23T05:06:07.945Z,14.25
2018-01-23T05:08:35.666Z,13.35
2018-01-23T05:11:03.342Z,13.90
2018-01-23T05:13:31.038Z,14.68
2018-01-23T05:15:58.751Z,12.82
2018-01-23T05:18:26.446Z,13.45
2018-01-23T05:20:54.125Z,14.43
2018-01-23T05:23:21.864Z,13.45
2018-01-23T05:25:49.563Z,13.52
2018-01-23T05:28:18.007Z,12.90
2018-01-23T05:30:45.734Z,11.95
2018-01-23T05:33:13.458Z,12.02
2018-01-23T05:35:41.158Z,12.48
2018-01-23T05:38:08.903Z,13.75
2018-01-23T05:40:37.374Z,12.37
2018-01-23T05:43:05.818Z,12.40
2018-01-23T05:45:33.531Z,10.98
2018-01-23T05:48:01.208Z,11.05
2018-01-23T05:50:28.886Z,13.32
2018-01-23T05:52:56.606Z,11.27
2018-01-23T05:55:25.055Z,11.98
2018-01-23T05:57:52.755Z,12.05
2018-01-23T06:00:20.483Z,11.90
2018-01-23T06:02:48.170Z,16.23
2018-01-23T06:05:16.683Z,17.42
2018-01-23T06:07:44.382Z,20.60
2018-01-23T06:10:12.063Z,15.48
2018-01-23T06:12:40.606Z,13.60
2018-01-23T06:15:08.287Z,13.98
2018-01-23T06:17:35.987Z,17.17
2018-01-23T06:20:03.735Z,15.82
2018-01-23T06:22:31.419Z,13.43
2018-01-23T06:24:59.099Z,13.62
2018-01-23T06:27:26.799Z,12.90
2018-01-23T06:29:54.498Z,12.20
2018-01-23T06:32:22.253Z,11.25
2018-01-23T06:34:49.954Z,11.65
2018-01-23T06:37:17.631Z,13.77
2018-01-23T06:39:45.376Z,13.90
2018-01-23T06:42:13.063Z,12.27
2018-01-23T06:44:40.767Z,15.85
2018-01-23T06:47:08.503Z,13.98
2018-01-23T06:49:37.050Z,13.68
2018-01-23T06:52:04.727Z,13.98
2018-01-23T06:54:32.555Z,14.00
2018-01-23T06:57:00.236Z,13.50
2018-01-23T06:59:27.934Z,14.68
2018-01-23T07:01:56.431Z,15.23
2018-01-23T07:04:24.106Z,13.73
2018-01-23T07:06:51.807Z,16.00
2018-01-23T07:09:19.548Z,16.02
2018-01-23T07:11:47.255Z,15.93
2018-01-23T07:14:15.704Z,15.80
2018-01-23T07:16:43.448Z,14.27
2018-01-23T07:19:11.127Z,14.63
2018-01-23T07:21:38.826Z,14.02
2018-01-23T07:24:07.295Z,13.27
2018-01-23T07:26:34.971Z,15.25
2018-01-23T07:29:03.435Z,14.15
2018-01-23T07:31:31.111Z,14.30
2018-01-23T07:33:59.618Z,13.45
2018-01-23T07:36:27.299Z,13.98
2018-01-23T07:38:54.999Z,13.98
2018-01-23T07:41:22.719Z,14.55
2018-01-23T07:43:50.414Z,14.90
2018-01-23T07:46:18.102Z,13.20
2018-01-23T07:48:46.615Z,12.60
2018-01-23T07:51:14.362Z,12.70
2018-01-23T07:53:42.043Z,12.50
2018-01-23T07:56:09.787Z,13.30
2018-01-23T07:58:37.471Z,11.70
2018-01-23T08:01:05.149Z,12.25
2018-01-23T08:03:32.871Z,14.05
2018-01-23T08:06:00.623Z,12.65
2018-01-23T08:08:28.306Z,13.40
2018-01-23T08:10:56.067Z,13.82
2018-01-23T08:13:23.786Z,13.07
2018-01-23T08:15:52.290Z,13.15
2018-01-23T08:18:19.963Z,13.75
2018-01-23T08:20:47.639Z,13.25
2018-01-23T08:23:15.343Z,15.93
2018-01-23T08:25:43.067Z,17.62
2018-01-23T08:28:10.823Z,19.15
2018-01-23T08:30:38.527Z,18.83
2018-01-23T08:33:06.208Z,14.40
2018-01-23T08:35:34.695Z,14.57
2018-01-23T08:38:03.135Z,14.32
2018-01-23T08:40:30.811Z,14.93
2018-01-23T08:42:58.534Z,15.18
2018-01-23T08:45:26.211Z,15.93
2018-01-23T08:47:53.970Z,14.10
2018-01-23T08:50:21.726Z,14.25
2018-01-23T08:52:49.545Z,15.45
2018-01-23T08:55:17.991Z,14.63
2018-01-23T08:57:45.731Z,13.80
2018-01-23T09:00:13.447Z,15.38
2018-01-23T09:02:41.252Z,13.62
2018-01-23T09:05:08.935Z,13.30
2018-01-23T09:07:36.639Z,15.38
2018-01-23T09:10:04.390Z,13.48
2018-01-23T09:12:32.835Z,15.50
2018-01-23T09:15:00.534Z,13.85
2018-01-23T09:17:28.998Z,14.02
2018-01-23T09:19:56.694Z,13.88
2018-01-23T09:22:24.399Z,14.35
2018-01-23T09:24:52.920Z,13.45
2018-01-23T09:27:21.391Z,12.35
2018-01-23T09:29:49.858Z,12.20
2018-01-23T09:32:17.615Z,12.35
2018-01-23T09:34:45.315Z,11.80
2018-01-23T09:37:12.991Z,12.18
2018-01-23T09:39:40.719Z,12.77
2018-01-23T09:42:09.164Z,13.00
2018-01-23T09:44:36.890Z,12.37
2018-01-23T09:47:04.626Z,11.82
2018-01-23T09:49:33.079Z,12.57
2018-01-23T09:52:00.778Z,12.57
2018-01-23T09:54:28.483Z,10.93
2018-01-23T09:56:56.228Z,13.02
2018-01-23T09:59:23.927Z,11.40
2018-01-23T10:01:51.610Z,12.15
2018-01-23T10:04:20.100Z,11.52
2018-01-23T10:06:47.852Z,11.90
2018-01-23T10:09:16.291Z,12.40
2018-01-23T10:11:43.963Z,13.00
2018-01-23T10:14:11.691Z,12.68
2018-01-23T10:16:39.367Z,12.77
2018-01-23T10:19:07.066Z,13.23
2018-01-23T10:21:35.582Z,14.90
2018-01-23T10:24:03.282Z,11.52
2018-01-23T10:26:31.007Z,11.60
2018-01-23T10:28:58.774Z,12.40
2018-01-23T10:31:26.455Z,10.10
2018-01-23T10:33:54.136Z,11.57
2018-01-23T10:36:21.867Z,11.30
2018-01-23T10:38:49.570Z,12.18
2018-01-23T10:41:17.319Z,10.30
2018-01-23T10:43:45.005Z,11.35
2018-01-23T10:46:13.447Z,10.82
2018-01-23T10:48:41.189Z,10.55
2018-01-23T10:51:08.891Z,10.48
2018-01-23T10:53:36.570Z,10.02
2018-01-23T10:56:05.063Z,11.43
2018-01-23T10:58:33.527Z,11.93
2018-01-23T11:01:05.942Z,12.02
2018-01-23T11:03:33.620Z,11.43
2018-01-23T11:06:01.339Z,10.55
2018-01-23T11:08:29.063Z,10.88
2018-01-23T11:10:56.748Z,10.00
2018-01-23T11:13:25.191Z,11.15
2018-01-23T11:15:52.910Z,9.90
2018-01-23T11:18:20.602Z,9.98
2018-01-23T11:20:48.283Z,12.37
2018-01-23T11:23:15.999Z,8.73
2018-01-23T11:25:43.698Z,8.93
2018-01-23T11:28:11.394Z,9.35
2018-01-23T11:30:39.909Z,8.35
2018-01-23T11:33:07.611Z,9.57
2018-01-23T11:35:35.310Z,8.63
2018-01-23T11:38:03.841Z,8.65
2018-01-23T11:40:31.539Z,9.38
2018-01-23T11:42:59.998Z,8.65
2018-01-23T11:45:30.208Z,8.18
2018-01-23T11:47:57.903Z,8.90
2018-01-23T11:52:58.206Z,8.82
2018-01-23T11:55:25.910Z,8.70
2018-01-23T11:57:54.370Z,8.48
2018-01-23T12:00:22.130Z,7.32
2018-01-23T12:02:50.207Z,8.60
2018-01-23T12:05:17.893Z,9.10
2018-01-23T12:07:45.642Z,6.87
2018-01-23T12:10:14.129Z,9.18
2018-01-23T12:12:43.687Z,9.38
2018-01-23T12:15:13.466Z,10.27
2018-01-23T12:17:41.139Z,9.50
2018-01-23T12:20:09.638Z,9.85
2018-01-23T12:22:37.796Z,9.82
2018-01-23T12:25:05.503Z,9.35
2018-01-23T12:27:33.967Z,10.90
2018-01-23T12:30:01.720Z,10.55
2018-01-23T12:32:30.703Z,9.35
2018-01-23T12:35:00.025Z,10.38
2018-01-23T12:37:27.931Z,9.88
2018-01-23T12:39:56.040Z,10.68
2018-01-23T12:42:23.739Z,10.15
2018-01-23T12:44:52.371Z,11.88
2018-01-23T12:47:20.454Z,9.73
2018-01-23T12:49:49.244Z,11.05
2018-01-23T12:52:16.995Z,9.45
2018-01-23T12:54:45.076Z,9.30
2018-01-23T12:57:12.779Z,9.80
2018-01-23T12:59:41.804Z,9.48
2018-01-23T13:02:10.517Z,10.15
2018-01-23T13:04:38.234Z,9.18
2018-01-23T13:07:05.939Z,9.48
2018-01-23T13:09:37.694Z,8.95
2018-01-23T13:12:05.395Z,9.15
2018-01-23T13:14:33.887Z,9.57
2018-01-23T13:17:02.622Z,10.05
2018-01-23T13:19:30.386Z,9.38
2018-01-23T13:21:58.249Z,9.65
2018-01-23T13:24:26.014Z,9.27
2018-01-23T13:26:53.878Z,10.90
2018-01-23T13:29:21.795Z,8.38
2018-01-23T13:31:49.608Z,9.10
2018-01-23T13:34:17.371Z,11.00
2018-01-23T13:36:45.132Z,9.88
2018-01-23T13:39:13.307Z,10.45
2018-01-23T13:41:41.171Z,11.73
2018-01-23T13:44:09.037Z,10.88
2018-01-23T13:46:36.798Z,11.35
2018-01-23T13:49:04.663Z,11.40
2018-01-23T13:51:32.938Z,10.27
2018-01-23T13:54:00.703Z,12.63
2018-01-23T13:56:28.567Z,10.30
2018-01-23T13:58:56.432Z,11.48
2018-01-23T14:01:26.243Z,11.60
2018-01-23T14:03:54.518Z,11.40
2018-01-23T14:06:23.717Z,12.57
2018-01-23T14:08:51.426Z,11.98
2018-01-23T14:11:20.000Z,13.02
2018-01-23T14:13:48.539Z,12.43
2018-01-23T14:16:16.302Z,12.95
2018-01-23T14:18:44.167Z,12.00
2018-01-23T14:21:13.672Z,11.77
2018-01-23T14:23:42.253Z,12.60
2018-01-23T14:26:10.426Z,12.35
2018-01-23T14:31:10.867Z,13.77
2018-01-23T14:33:39.654Z,13.55
2018-01-23T14:36:08.044Z,12.15
2018-01-23T14:38:35.897Z,11.07
2018-01-23T14:41:03.661Z,12.85
2018-01-23T14:43:32.387Z,12.05
2018-01-23T14:46:01.032Z,12.23
2018-01-23T14:48:28.896Z,12.88
2018-01-23T14:50:56.758Z,12.37
2018-01-23T14:53:25.033Z,11.57
2018-01-23T14:55:52.898Z,12.37
2018-01-23T14:58:20.661Z,11.95
2018-01-23T15:00:48.529Z,10.85
2018-01-23T15:03:16.535Z,11.15
2018-01-23T15:05:44.666Z,12.05
2018-01-23T15:08:15.359Z,13.45
2018-01-23T15:10:43.264Z,12.75
2018-01-23T15:13:11.538Z,16.02
2018-01-23T15:15:39.506Z,13.57
2018-01-23T15:18:07.781Z,12.82
2018-01-23T15:20:37.490Z,12.70
2018-01-23T15:23:05.354Z,12.68
2018-01-23T15:25:33.118Z,13.43
2018-01-23T15:28:00.881Z,14.20
2018-01-23T15:30:29.258Z,12.52
2018-01-23T15:32:57.840Z,13.98
2018-01-23T15:35:26.168Z,12.85
2018-01-23T15:37:54.800Z,12.68
2018-01-23T15:40:24.508Z,15.27
2018-01-23T15:42:52.885Z,14.23
2018-01-23T15:45:20.750Z,14.43
2018-01-23T15:47:48.616Z,15.15
2018-01-23T15:50:16.685Z,13.27
2018-01-23T15:52:45.373Z,13.98
2018-01-23T15:55:13.441Z,14.93
2018-01-23T15:57:41.306Z,14.63
2018-01-23T16:00:09.171Z,16.10
2018-01-23T16:02:36.934Z,14.35
2018-01-23T16:05:04.800Z,14.48
2018-01-23T16:07:32.971Z,15.40
2018-01-23T16:10:01.368Z,16.00
2018-01-23T16:12:35.110Z,15.00
2018-01-23T16:17:37.633Z,13.85
2018-01-23T16:20:06.714Z,15.40
2018-01-23T16:22:34.499Z,13.73
2018-01-23T16:25:03.081Z,15.38
2018-01-23T16:27:31.355Z,15.70
2018-01-23T16:29:59.119Z,15.75
2018-01-23T16:32:26.984Z,20.48
2018-01-23T16:34:54.748Z,15.98
2018-01-23T16:37:22.613Z,15.20
2018-01-23T16:39:50.376Z,17.17
2018-01-23T16:42:18.243Z,17.65
2018-01-23T16:44:46.109Z,16.83
2018-01-23T16:47:14.219Z,16.67
2018-01-23T16:49:42.758Z,17.35
2018-01-23T16:52:10.624Z,16.60
2018-01-23T16:54:38.386Z,17.58
2018-01-23T16:57:06.662Z,16.02
2018-01-23T16:59:36.132Z,17.45
2018-01-23T17:02:04.440Z,16.17
2018-01-23T17:04:33.842Z,17.05
2018-01-23T17:07:02.935Z,17.42
2018-01-23T17:09:30.698Z,17.62
2018-01-23T17:11:58.568Z,17.58
2018-01-23T17:14:26.634Z,17.80
2018-01-23T17:16:54.396Z,18.48
2018-01-23T17:19:22.774Z,17.90
2018-01-23T17:21:51.464Z,17.35
2018-01-23T17:24:20.245Z,18.60
2018-01-23T17:26:48.008Z,15.63
2018-01-23T17:29:16.590Z,17.10
2018-01-23T17:31:44.353Z,15.63
2018-01-23T17:34:12.121Z,14.48
2018-01-23T17:36:39.983Z,14.68
2018-01-23T17:39:07.848Z,14.63
2018-01-23T17:41:35.611Z,13.50
2018-01-23T17:44:03.474Z,13.55
2018-01-23T17:46:31.340Z,15.65
2018-01-23T17:48:59.103Z,15.55
2018-01-23T17:51:26.969Z,14.32
2018-01-23T17:53:55.244Z,13.82
2018-01-23T17:56:23.027Z,15.10
2018-01-23T17:58:52.086Z,15.07
2018-01-23T18:01:23.959Z,13.80
2018-01-23T18:03:51.824Z,12.57
2018-01-23T18:06:19.692Z,13.13
2018-01-23T18:08:47.453Z,16.00
2018-01-23T18:11:15.728Z,14.95
2018-01-23T18:13:44.715Z,10.43
2018-01-23T18:16:12.893Z,12.23
2018-01-23T18:18:40.757Z,12.18
2018-01-23T18:21:08.520Z,12.85
2018-01-23T18:23:36.215Z,11.45
2018-01-23T18:26:04.702Z,12.10
2018-01-23T18:28:35.291Z,11.75
2018-01-23T18:31:02.969Z,13.62
2018-01-23T18:33:30.667Z,13.10
2018-01-23T18:35:58.399Z,19.67
2018-01-23T18:38:26.107Z,10.70
2018-01-23T18:43:26.393Z,15.52
2018-01-23T18:45:54.099Z,12.37
2018-01-23T18:50:53.643Z,9.00
2018-01-23T18:53:21.655Z,9.05
2018-01-23T18:55:49.330Z,10.25
2018-01-23T18:58:19.301Z,8.90
2018-01-23T19:00:47.984Z,10.43
2018-01-23T19:03:16.156Z,12.77
2018-01-23T19:05:44.007Z,11.30
2018-01-23T19:08:12.455Z,11.98
2018-01-23T19:10:40.150Z,15.52
2018-01-23T19:13:08.672Z,10.65
2018-01-23T19:15:36.351Z,10.23
2018-01-23T19:18:05.119Z,13.95
2018-01-23T19:20:32.847Z,9.98
2018-01-23T19:23:00.559Z,10.00
2018-01-23T19:25:29.050Z,8.63
2018-01-23T19:27:57.100Z,8.15
2018-01-23T19:30:25.558Z,8.20
2018-01-23T19:32:53.651Z,8.27
2018-01-23T19:35:22.139Z,7.97
2018-01-23T19:37:50.621Z,6.90
2018-01-23T19:40:19.565Z,6.87
2018-01-23T19:42:47.303Z,7.60
2018-01-23T19:45:18.915Z,7.12
2018-01-23T19:47:47.459Z,6.75
2018-01-23T19:50:15.176Z,5.65
2018-01-23T19:52:42.875Z,5.97
2018-01-23T19:55:11.568Z,6.22
2018-01-23T19:57:41.483Z,6.12
2018-01-23T20:00:10.985Z,7.00
2018-01-23T20:02:38.691Z,5.40
2018-01-23T20:05:08.047Z,5.90
2018-01-23T20:07:35.747Z,5.40
2018-01-23T20:10:04.251Z,5.40
2018-01-23T20:12:31.951Z,5.10
2018-01-23T20:14:59.651Z,6.10
2018-01-23T20:17:28.139Z,5.53
2018-01-23T20:19:56.602Z,4.40
2018-01-23T20:22:25.066Z,4.97
2018-01-23T20:24:52.814Z,5.82
2018-01-23T20:27:20.511Z,4.97
2018-01-23T20:29:48.982Z,4.68
2018-01-23T20:32:16.702Z,4.47
2018-01-23T20:34:44.400Z,5.22
2018-01-23T20:37:12.123Z,5.07
2018-01-23T20:39:39.824Z,4.28
2018-01-23T20:42:07.546Z,4.18
2018-01-23T20:44:35.270Z,5.18
2018-01-23T20:47:04.624Z,4.25
2018-01-23T20:49:33.208Z,4.43
2018-01-23T20:52:00.935Z,4.97
2018-01-23T20:54:28.679Z,4.80
2018-01-23T20:56:57.192Z,4.28
2018-01-23T20:59:26.963Z,4.35
2018-01-23T21:01:55.425Z,5.30
2018-01-23T21:04:23.175Z,4.10
2018-01-23T21:06:50.856Z,3.67
2018-01-23T21:09:18.526Z,4.15
2018-01-23T21:11:47.014Z,5.55
2018-01-23T21:14:15.649Z,3.70
2018-01-23T21:16:43.355Z,3.67
2018-01-23T21:19:11.087Z,3.60
2018-01-23T21:21:38.783Z,3.17
2018-01-23T21:24:06.483Z,3.75
2018-01-23T21:26:34.242Z,3.10
2018-01-23T21:29:02.275Z,3.70
2018-01-23T21:31:31.546Z,3.90
2018-01-23T21:33:59.283Z,3.15
2018-01-23T21:38:59.933Z,4.07
2018-01-23T21:41:27.626Z,4.25
2018-01-23T21:43:56.114Z,5.43
2018-01-23T21:46:24.581Z,4.40
2018-01-23T21:48:52.828Z,5.82
2018-01-23T21:51:20.526Z,4.50
2018-01-23T21:53:48.991Z,5.65
2018-01-23T21:56:16.715Z,4.35
2018-01-23T22:01:16.262Z,7.00
2018-01-23T22:03:43.938Z,3.85
2018-01-23T22:06:11.630Z,4.62
2018-01-23T22:08:39.354Z,3.70
2018-01-23T22:11:11.296Z,4.68
2018-01-23T22:13:40.115Z,3.58
2018-01-23T22:16:07.810Z,5.95
2018-01-23T22:18:35.506Z,3.70
2018-01-23T22:21:03.205Z,3.87
2018-01-23T22:23:31.719Z,4.28
2018-01-23T22:25:59.398Z,3.90
2018-01-23T22:28:27.091Z,5.12
2018-01-23T22:33:26.641Z,3.78
2018-01-23T22:35:54.967Z,3.40
2018-01-23T22:38:26.621Z,3.50
2018-01-23T22:40:55.443Z,4.03
2018-01-23T22:43:23.947Z,4.20
2018-01-23T22:45:52.060Z,3.80
2018-01-23T22:48:19.754Z,4.05
2018-01-23T22:50:48.291Z,5.15
2018-01-23T22:53:16.884Z,3.80
2018-01-23T22:55:45.469Z,4.62
2018-01-23T23:00:47.063Z,4.47
2018-01-23T23:03:14.779Z,4.70
2018-01-23T23:05:42.475Z,5.00
2018-01-23T23:08:11.039Z,4.75
2018-01-23T23:10:38.758Z,5.10
2018-01-23T23:13:06.443Z,4.93
2018-01-23T23:15:34.156Z,4.70
2018-01-23T23:18:02.791Z,4.30
2018-01-23T23:20:31.419Z,5.65
2018-01-23T23:22:59.115Z,5.47
2018-01-23T23:25:26.839Z,4.32
